Airfield :
LOGIN :

Register | Disclaimer

   EN    FR    IT 

 










Legend :    VFR   Marginal VFR   IFR   Intensive IFR   Very Intensive IFR
Visi :
Ceiling :
>= 8 km
>= 3000ft
5 to 8 km
1000 to 3000 ft
1500m to 5 km
500 to 1000 ft
800 to 1500m
200 to 500 ft
< 800m
< 200 ft
Symbols :   Thunderstorms  Fog  Heavy snow  Heavy precipitations  Wind > 20 kt
SIGMETs :     Misc.  Thunderstorms  Icing  Turbulence  Mountain Waves  Volcanic Ashes







- Airport Elevation : 276 ft


LYVR - Vršac International

CURRENT METAR :
  • 220830Z VRB01KT 8000 -RA FEW006 BKN040 03/03 Q1012 TEMPO 5000 RA BKN013 BKN030

EXPIRED METARs :
  • 220800Z VRB02KT 8000 -RA FEW006 BKN046 02/02 Q1013 NOSIG
  • 220730Z 03003KT 360V080 8000 FEW006 BKN046 02/02 Q1013 BECMG 4000 -RASN BKN006 BKN033
  • 220700Z 03005KT 8000 FEW006 BKN046 02/02 Q1012 BECMG 3000 -RASN BKN006 BKN033
  • 220630Z 03005KT 8000 FEW006 BKN046 02/02 Q1012 BECMG 3000 -RASN BKN006 BKN033
  • 220600Z 02006KT 6000 -RA SCT020 01/01 Q1012 NOSIG

TAF TAF LYVR
Valid from the 22 at 06:00 until the 23 at 06:00 UTC


220500Z 2206/2306 03008KT 9999 SCT040 TX06/2213Z TN01/2206Z
TEMPO 2206/2210 4000 -RASN BR BKN006 BKN040
BECMG 2208/2210 14020G30KT
No reported NOTAMs for that airfield.



MET'MAP, your aeronautical weather chart ! - Copyright ORBIFLY December 2007 - Disclaimer

ORBIFLY MET'MAP TEAM :

Programming & Development : Alexandra Zaïnal
Concept & Development : Baudouin d'Aumeries
Co-Development & Prog : Marc-Olivier Méhu
Technical & hardware support : Manuel Goepfert

Contact : metmap@orbifly.com




SOURCES & CREDITS :

   NOAA